sensor_id;sensor_type;location;lat;lon;timestamp;P1;durP1;ratioP1;P2;durP2;ratioP2
57085;SDS011;42964;42.910;23.792;2022-10-13T00:02:03;61.60;;;38.22;;
57085;SDS011;42964;42.910;23.792;2022-10-13T00:07:02;62.05;;;38.80;;
57085;SDS011;42964;42.910;23.792;2022-10-13T00:12:01;64.30;;;38.35;;
57085;SDS011;42964;42.910;23.792;2022-10-13T00:17:00;55.78;;;35.95;;
57085;SDS011;42964;42.910;23.792;2022-10-13T00:21:58;51.47;;;33.83;;
57085;SDS011;42964;42.910;23.792;2022-10-13T00:26:57;55.13;;;35.25;;
57085;SDS011;42964;42.910;23.792;2022-10-13T00:31:56;58.53;;;35.75;;
57085;SDS011;42964;42.910;23.792;2022-10-13T00:36:55;53.78;;;35.08;;
57085;SDS011;42964;42.910;23.792;2022-10-13T00:41:55;53.88;;;36.13;;
57085;SDS011;42964;42.910;23.792;2022-10-13T00:46:56;101.72;;;41.38;;
57085;SDS011;42964;42.910;23.792;2022-10-13T00:51:55;193.85;;;53.55;;
57085;SDS011;42964;42.910;23.792;2022-10-13T00:56:54;164.00;;;53.88;;
57085;SDS011;42964;42.910;23.792;2022-10-13T01:01:54;136.00;;;50.20;;
57085;SDS011;42964;42.910;23.792;2022-10-13T01:06:55;194.63;;;52.60;;
57085;SDS011;42964;42.910;23.792;2022-10-13T01:38:20;123.40;;;42.42;;
57085;SDS011;42964;42.910;23.792;2022-10-13T01:43:29;130.60;;;42.05;;
57085;SDS011;42964;42.910;23.792;2022-10-13T01:53:35;153.95;;;49.15;;
57085;SDS011;42964;42.910;23.792;2022-10-13T01:58:35;97.43;;;44.70;;
57085;SDS011;42964;42.910;23.792;2022-10-13T02:03:39;76.25;;;40.05;;
57085;SDS011;42964;42.910;23.792;2022-10-13T02:09:03;82.63;;;39.17;;
57085;SDS011;42964;42.910;23.792;2022-10-13T02:14:10;160.70;;;44.38;;
57085;SDS011;42964;42.910;23.792;2022-10-13T02:19:19;148.27;;;42.67;;
57085;SDS011;42964;42.910;23.792;2022-10-13T02:24:19;121.50;;;40.38;;
57085;SDS011;42964;42.910;23.792;2022-10-13T02:29:18;265.77;;;51.05;;
57085;SDS011;42964;42.910;23.792;2022-10-13T02:39:16;142.20;;;37.53;;
57085;SDS011;42964;42.910;23.792;2022-10-13T02:44:15;135.73;;;39.50;;
57085;SDS011;42964;42.910;23.792;2022-10-13T02:49:14;197.23;;;43.60;;
57085;SDS011;42964;42.910;23.792;2022-10-13T02:54:13;91.50;;;38.40;;
57085;SDS011;42964;42.910;23.792;2022-10-13T02:59:12;84.20;;;37.33;;
57085;SDS011;42964;42.910;23.792;2022-10-13T03:04:11;97.47;;;37.17;;
57085;SDS011;42964;42.910;23.792;2022-10-13T03:09:10;155.27;;;39.33;;
57085;SDS011;42964;42.910;23.792;2022-10-13T03:19:08;85.90;;;37.03;;
57085;SDS011;42964;42.910;23.792;2022-10-13T03:24:07;82.10;;;36.63;;
57085;SDS011;42964;42.910;23.792;2022-10-13T03:29:06;93.63;;;36.67;;
57085;SDS011;42964;42.910;23.792;2022-10-13T03:34:05;188.35;;;44.85;;
57085;SDS011;42964;42.910;23.792;2022-10-13T03:39:04;111.60;;;34.50;;
57085;SDS011;42964;42.910;23.792;2022-10-13T03:44:04;103.18;;;34.03;;
57085;SDS011;42964;42.910;23.792;2022-10-13T03:49:03;68.32;;;33.20;;
57085;SDS011;42964;42.910;23.792;2022-10-13T03:54:02;109.35;;;38.85;;
57085;SDS011;42964;42.910;23.792;2022-10-13T04:04:02;127.15;;;39.75;;
57085;SDS011;42964;42.910;23.792;2022-10-13T04:09:01;89.22;;;32.92;;
57085;SDS011;42964;42.910;23.792;2022-10-13T04:14:01;185.68;;;44.35;;
57085;SDS011;42964;42.910;23.792;2022-10-13T04:19:01;84.13;;;36.78;;
57085;SDS011;42964;42.910;23.792;2022-10-13T04:24:02;89.18;;;39.40;;
57085;SDS011;42964;42.910;23.792;2022-10-13T04:29:02;78.85;;;37.55;;
57085;SDS011;42964;42.910;23.792;2022-10-13T04:34:02;69.32;;;32.38;;
57085;SDS011;42964;42.910;23.792;2022-10-13T04:39:02;56.30;;;29.70;;
57085;SDS011;42964;42.910;23.792;2022-10-13T04:44:01;73.88;;;31.33;;
57085;SDS011;42964;42.910;23.792;2022-10-13T04:49:00;83.25;;;33.17;;
57085;SDS011;42964;42.910;23.792;2022-10-13T04:53:59;108.47;;;36.50;;
57085;SDS011;42964;42.910;23.792;2022-10-13T04:58:59;95.03;;;34.90;;
57085;SDS011;42964;42.910;23.792;2022-10-13T05:03:59;100.45;;;36.70;;
57085;SDS011;42964;42.910;23.792;2022-10-13T05:08:59;83.03;;;34.85;;
57085;SDS011;42964;42.910;23.792;2022-10-13T05:14:00;65.03;;;32.22;;
57085;SDS011;42964;42.910;23.792;2022-10-13T05:19:00;68.38;;;30.90;;
57085;SDS011;42964;42.910;23.792;2022-10-13T05:23:58;100.72;;;32.88;;
57085;SDS011;42964;42.910;23.792;2022-10-13T05:29:00;85.80;;;28.80;;
57085;SDS011;42964;42.910;23.792;2022-10-13T05:34:00;85.60;;;30.30;;
57085;SDS011;42964;42.910;23.792;2022-10-13T05:39:00;86.20;;;31.92;;
57085;SDS011;42964;42.910;23.792;2022-10-13T05:44:03;119.53;;;36.95;;
57085;SDS011;42964;42.910;23.792;2022-10-13T05:49:05;92.45;;;34.97;;
57085;SDS011;42964;42.910;23.792;2022-10-13T05:54:08;100.38;;;37.00;;
57085;SDS011;42964;42.910;23.792;2022-10-13T05:59:11;91.82;;;37.03;;
57085;SDS011;42964;42.910;23.792;2022-10-13T06:04:14;127.43;;;37.05;;
57085;SDS011;42964;42.910;23.792;2022-10-13T06:09:17;75.13;;;37.97;;
57085;SDS011;42964;42.910;23.792;2022-10-13T06:19:15;76.53;;;42.38;;
57085;SDS011;42964;42.910;23.792;2022-10-13T06:24:14;96.05;;;41.03;;
57085;SDS011;42964;42.910;23.792;2022-10-13T06:29:13;82.03;;;43.00;;
57085;SDS011;42964;42.910;23.792;2022-10-13T06:39:12;100.22;;;43.83;;
57085;SDS011;42964;42.910;23.792;2022-10-13T06:44:12;109.53;;;46.05;;
57085;SDS011;42964;42.910;23.792;2022-10-13T06:49:11;78.05;;;41.70;;
57085;SDS011;42964;42.910;23.792;2022-10-13T06:54:10;85.40;;;43.95;;
57085;SDS011;42964;42.910;23.792;2022-10-13T06:59:09;95.72;;;46.85;;
57085;SDS011;42964;42.910;23.792;2022-10-13T07:04:08;76.35;;;44.03;;
57085;SDS011;42964;42.910;23.792;2022-10-13T07:14:06;74.53;;;44.67;;
57085;SDS011;42964;42.910;23.792;2022-10-13T07:19:05;67.55;;;40.20;;
57085;SDS011;42964;42.910;23.792;2022-10-13T07:24:04;59.05;;;39.05;;
57085;SDS011;42964;42.910;23.792;2022-10-13T07:29:04;65.55;;;42.10;;
57085;SDS011;42964;42.910;23.792;2022-10-13T07:39:03;67.10;;;44.13;;
57085;SDS011;42964;42.910;23.792;2022-10-13T07:44:02;62.72;;;42.47;;
57085;SDS011;42964;42.910;23.792;2022-10-13T07:49:01;60.70;;;42.65;;
57085;SDS011;42964;42.910;23.792;2022-10-13T07:54:00;59.05;;;40.30;;
57085;SDS011;42964;42.910;23.792;2022-10-13T07:59:00;58.83;;;41.25;;
57085;SDS011;42964;42.910;23.792;2022-10-13T08:04:00;59.50;;;41.38;;
57085;SDS011;42964;42.910;23.792;2022-10-13T08:08:58;59.72;;;41.75;;
57085;SDS011;42964;42.910;23.792;2022-10-13T08:18:59;55.83;;;39.35;;
57085;SDS011;42964;42.910;23.792;2022-10-13T08:23:58;51.63;;;37.15;;
57085;SDS011;42964;42.910;23.792;2022-10-13T08:28:57;52.15;;;39.13;;
57085;SDS011;42964;42.910;23.792;2022-10-13T08:33:56;53.30;;;38.08;;
57085;SDS011;42964;42.910;23.792;2022-10-13T08:38:55;56.40;;;43.22;;
57085;SDS011;42964;42.910;23.792;2022-10-13T08:43:55;51.53;;;39.50;;
57085;SDS011;42964;42.910;23.792;2022-10-13T08:48:59;50.20;;;37.72;;
57085;SDS011;42964;42.910;23.792;2022-10-13T08:53:59;48.15;;;36.60;;
57085;SDS011;42964;42.910;23.792;2022-10-13T08:58:58;47.05;;;31.98;;
57085;SDS011;42964;42.910;23.792;2022-10-13T09:04:14;41.50;;;30.27;;
57085;SDS011;42964;42.910;23.792;2022-10-13T09:09:36;40.42;;;30.88;;
57085;SDS011;42964;42.910;23.792;2022-10-13T09:14:36;34.90;;;24.35;;
57085;SDS011;42964;42.910;23.792;2022-10-13T09:19:36;26.73;;;21.17;;
57085;SDS011;42964;42.910;23.792;2022-10-13T09:24:36;30.80;;;20.20;;
57085;SDS011;42964;42.910;23.792;2022-10-13T09:34:34;23.90;;;17.10;;
57085;SDS011;42964;42.910;23.792;2022-10-13T09:44:31;21.92;;;16.88;;
57085;SDS011;42964;42.910;23.792;2022-10-13T09:59:50;14.85;;;10.07;;
57085;SDS011;42964;42.910;23.792;2022-10-13T10:04:51;16.70;;;11.77;;
57085;SDS011;42964;42.910;23.792;2022-10-13T10:09:56;18.35;;;12.38;;
57085;SDS011;42964;42.910;23.792;2022-10-13T10:14:59;19.17;;;13.55;;
57085;SDS011;42964;42.910;23.792;2022-10-13T10:30:30;19.15;;;12.32;;
57085;SDS011;42964;42.910;23.792;2022-10-13T10:41:44;13.90;;;9.18;;
57085;SDS011;42964;42.910;23.792;2022-10-13T10:46:27;13.13;;;9.75;;
57085;SDS011;42964;42.910;23.792;2022-10-13T10:51:34;13.48;;;10.13;;
57085;SDS011;42964;42.910;23.792;2022-10-13T10:56:38;15.23;;;9.85;;
57085;SDS011;42964;42.910;23.792;2022-10-13T11:01:45;12.93;;;9.00;;
57085;SDS011;42964;42.910;23.792;2022-10-13T11:06:53;11.25;;;8.35;;
57085;SDS011;42964;42.910;23.792;2022-10-13T11:11:52;13.35;;;9.30;;
57085;SDS011;42964;42.910;23.792;2022-10-13T11:17:08;14.30;;;9.90;;
57085;SDS011;42964;42.910;23.792;2022-10-13T11:22:14;13.68;;;9.02;;
57085;SDS011;42964;42.910;23.792;2022-10-13T11:37:31;16.55;;;8.55;;
57085;SDS011;42964;42.910;23.792;2022-10-13T12:01:00;12.07;;;7.53;;
57085;SDS011;42964;42.910;23.792;2022-10-13T12:06:19;15.10;;;8.18;;
57085;SDS011;42964;42.910;23.792;2022-10-13T12:11:25;10.95;;;7.00;;
57085;SDS011;42964;42.910;23.792;2022-10-13T12:16:26;10.35;;;7.53;;
57085;SDS011;42964;42.910;23.792;2022-10-13T12:21:26;12.20;;;9.13;;
57085;SDS011;42964;42.910;23.792;2022-10-13T12:26:25;8.57;;;7.20;;
57085;SDS011;42964;42.910;23.792;2022-10-13T12:31:44;12.52;;;7.60;;
57085;SDS011;42964;42.910;23.792;2022-10-13T12:36:45;11.15;;;6.82;;
57085;SDS011;42964;42.910;23.792;2022-10-13T12:41:51;10.25;;;7.00;;
57085;SDS011;42964;42.910;23.792;2022-10-13T12:46:53;14.05;;;9.18;;
57085;SDS011;42964;42.910;23.792;2022-10-13T12:57:06;9.40;;;6.25;;
57085;SDS011;42964;42.910;23.792;2022-10-13T13:02:34;10.27;;;6.20;;
57085;SDS011;42964;42.910;23.792;2022-10-13T13:07:35;9.73;;;6.30;;
57085;SDS011;42964;42.910;23.792;2022-10-13T13:12:35;13.85;;;7.38;;
57085;SDS011;42964;42.910;23.792;2022-10-13T13:17:35;11.93;;;6.90;;
57085;SDS011;42964;42.910;23.792;2022-10-13T13:22:34;13.15;;;7.32;;
57085;SDS011;42964;42.910;23.792;2022-10-13T13:27:36;9.55;;;6.63;;
57085;SDS011;42964;42.910;23.792;2022-10-13T13:32:37;8.73;;;6.03;;
57085;SDS011;42964;42.910;23.792;2022-10-13T13:37:37;10.75;;;6.95;;
57085;SDS011;42964;42.910;23.792;2022-10-13T13:42:39;12.77;;;6.38;;
57085;SDS011;42964;42.910;23.792;2022-10-13T13:47:38;9.77;;;7.43;;
57085;SDS011;42964;42.910;23.792;2022-10-13T13:52:37;13.18;;;8.07;;
57085;SDS011;42964;42.910;23.792;2022-10-13T13:57:36;11.82;;;6.43;;
57085;SDS011;42964;42.910;23.792;2022-10-13T14:02:35;10.88;;;6.55;;
57085;SDS011;42964;42.910;23.792;2022-10-13T14:07:34;10.85;;;7.07;;
57085;SDS011;42964;42.910;23.792;2022-10-13T14:12:33;11.88;;;6.53;;
57085;SDS011;42964;42.910;23.792;2022-10-13T14:17:32;10.68;;;6.70;;
57085;SDS011;42964;42.910;23.792;2022-10-13T14:22:31;11.70;;;6.13;;
57085;SDS011;42964;42.910;23.792;2022-10-13T14:27:30;10.23;;;6.65;;
57085;SDS011;42964;42.910;23.792;2022-10-13T14:32:31;12.63;;;7.28;;
57085;SDS011;42964;42.910;23.792;2022-10-13T14:37:30;16.30;;;8.85;;
57085;SDS011;42964;42.910;23.792;2022-10-13T14:42:29;10.35;;;6.63;;
57085;SDS011;42964;42.910;23.792;2022-10-13T14:47:28;10.82;;;7.05;;
57085;SDS011;42964;42.910;23.792;2022-10-13T14:52:27;12.18;;;8.02;;
57085;SDS011;42964;42.910;23.792;2022-10-13T14:57:26;13.50;;;9.55;;
57085;SDS011;42964;42.910;23.792;2022-10-13T15:02:25;12.55;;;9.02;;
57085;SDS011;42964;42.910;23.792;2022-10-13T15:07:24;16.88;;;9.65;;
57085;SDS011;42964;42.910;23.792;2022-10-13T15:12:23;15.52;;;10.75;;
57085;SDS011;42964;42.910;23.792;2022-10-13T15:17:22;15.73;;;11.15;;
57085;SDS011;42964;42.910;23.792;2022-10-13T15:22:21;14.65;;;10.38;;
57085;SDS011;42964;42.910;23.792;2022-10-13T15:27:20;23.02;;;13.90;;
57085;SDS011;42964;42.910;23.792;2022-10-13T15:32:19;12.65;;;8.55;;
57085;SDS011;42964;42.910;23.792;2022-10-13T15:37:19;14.55;;;10.25;;
57085;SDS011;42964;42.910;23.792;2022-10-13T15:42:17;21.02;;;16.17;;
57085;SDS011;42964;42.910;23.792;2022-10-13T15:47:16;21.13;;;15.75;;
57085;SDS011;42964;42.910;23.792;2022-10-13T15:52:15;17.33;;;12.82;;
57085;SDS011;42964;42.910;23.792;2022-10-13T16:02:13;20.33;;;14.63;;
57085;SDS011;42964;42.910;23.792;2022-10-13T16:12:11;37.87;;;22.00;;
57085;SDS011;42964;42.910;23.792;2022-10-13T16:22:08;34.10;;;28.13;;
57085;SDS011;42964;42.910;23.792;2022-10-13T16:32:06;32.65;;;16.08;;
57085;SDS011;42964;42.910;23.792;2022-10-13T16:37:05;21.67;;;13.95;;
57085;SDS011;42964;42.910;23.792;2022-10-13T16:47:03;22.50;;;14.00;;
57085;SDS011;42964;42.910;23.792;2022-10-13T16:52:03;35.22;;;14.40;;
57085;SDS011;42964;42.910;23.792;2022-10-13T17:02:01;20.95;;;14.88;;
57085;SDS011;42964;42.910;23.792;2022-10-13T17:11:59;47.55;;;33.25;;
57085;SDS011;42964;42.910;23.792;2022-10-13T17:21:57;32.70;;;20.35;;
57085;SDS011;42964;42.910;23.792;2022-10-13T17:31:54;32.83;;;20.30;;
57085;SDS011;42964;42.910;23.792;2022-10-13T17:36:53;53.10;;;38.05;;
57085;SDS011;42964;42.910;23.792;2022-10-13T17:46:51;34.67;;;27.00;;
57085;SDS011;42964;42.910;23.792;2022-10-13T17:56:50;24.35;;;18.63;;
57085;SDS011;42964;42.910;23.792;2022-10-13T18:01:52;25.08;;;18.17;;
57085;SDS011;42964;42.910;23.792;2022-10-13T18:11:51;35.50;;;23.73;;
57085;SDS011;42964;42.910;23.792;2022-10-13T18:16:51;39.05;;;27.30;;
57085;SDS011;42964;42.910;23.792;2022-10-13T18:21:50;39.00;;;28.17;;
57085;SDS011;42964;42.910;23.792;2022-10-13T18:26:50;31.38;;;23.52;;
57085;SDS011;42964;42.910;23.792;2022-10-13T18:36:49;27.83;;;17.27;;
57085;SDS011;42964;42.910;23.792;2022-10-13T18:41:50;22.50;;;16.48;;
57085;SDS011;42964;42.910;23.792;2022-10-13T18:46:51;28.35;;;19.35;;
57085;SDS011;42964;42.910;23.792;2022-10-13T18:51:51;29.02;;;21.02;;
57085;SDS011;42964;42.910;23.792;2022-10-13T18:56:50;27.95;;;18.33;;
57085;SDS011;42964;42.910;23.792;2022-10-13T19:01:50;25.42;;;15.55;;
57085;SDS011;42964;42.910;23.792;2022-10-13T19:11:48;19.10;;;12.23;;
57085;SDS011;42964;42.910;23.792;2022-10-13T19:16:47;18.65;;;11.95;;
57085;SDS011;42964;42.910;23.792;2022-10-13T19:26:45;18.83;;;14.73;;
57085;SDS011;42964;42.910;23.792;2022-10-13T19:31:44;22.45;;;15.88;;
57085;SDS011;42964;42.910;23.792;2022-10-13T19:36:44;21.75;;;16.05;;
57085;SDS011;42964;42.910;23.792;2022-10-13T19:41:45;21.77;;;13.80;;
57085;SDS011;42964;42.910;23.792;2022-10-13T19:46:45;21.25;;;14.43;;
57085;SDS011;42964;42.910;23.792;2022-10-13T19:51:45;25.92;;;18.65;;
57085;SDS011;42964;42.910;23.792;2022-10-13T19:56:45;27.08;;;19.48;;
57085;SDS011;42964;42.910;23.792;2022-10-13T20:01:46;28.60;;;19.45;;
57085;SDS011;42964;42.910;23.792;2022-10-13T20:06:48;24.50;;;17.83;;
57085;SDS011;42964;42.910;23.792;2022-10-13T20:11:48;20.02;;;15.80;;
57085;SDS011;42964;42.910;23.792;2022-10-13T20:16:49;21.38;;;15.65;;
57085;SDS011;42964;42.910;23.792;2022-10-13T20:21:48;21.48;;;14.63;;
57085;SDS011;42964;42.910;23.792;2022-10-13T20:26:50;22.58;;;17.65;;
57085;SDS011;42964;42.910;23.792;2022-10-13T20:31:49;21.30;;;16.10;;
57085;SDS011;42964;42.910;23.792;2022-10-13T20:36:48;25.45;;;17.67;;
57085;SDS011;42964;42.910;23.792;2022-10-13T20:41:48;26.55;;;19.83;;
57085;SDS011;42964;42.910;23.792;2022-10-13T20:46:47;30.65;;;21.92;;
57085;SDS011;42964;42.910;23.792;2022-10-13T20:51:46;30.75;;;23.25;;
57085;SDS011;42964;42.910;23.792;2022-10-13T20:56:45;32.00;;;23.52;;
57085;SDS011;42964;42.910;23.792;2022-10-13T21:01:44;32.50;;;23.20;;
57085;SDS011;42964;42.910;23.792;2022-10-13T21:06:43;34.13;;;24.45;;
57085;SDS011;42964;42.910;23.792;2022-10-13T21:11:43;35.17;;;25.75;;
57085;SDS011;42964;42.910;23.792;2022-10-13T21:16:42;47.42;;;31.58;;
57085;SDS011;42964;42.910;23.792;2022-10-13T21:21:41;30.20;;;23.90;;
57085;SDS011;42964;42.910;23.792;2022-10-13T21:26:40;31.65;;;25.35;;
57085;SDS011;42964;42.910;23.792;2022-10-13T21:31:39;33.83;;;24.27;;
57085;SDS011;42964;42.910;23.792;2022-10-13T21:36:38;25.65;;;19.52;;
57085;SDS011;42964;42.910;23.792;2022-10-13T21:41:41;24.85;;;17.23;;
57085;SDS011;42964;42.910;23.792;2022-10-13T21:51:39;27.35;;;17.70;;
57085;SDS011;42964;42.910;23.792;2022-10-13T21:56:39;24.10;;;13.60;;
57085;SDS011;42964;42.910;23.792;2022-10-13T22:01:39;25.40;;;16.10;;
57085;SDS011;42964;42.910;23.792;2022-10-13T22:06:39;22.13;;;15.45;;
57085;SDS011;42964;42.910;23.792;2022-10-13T22:11:38;29.25;;;21.50;;
57085;SDS011;42964;42.910;23.792;2022-10-13T22:16:42;40.03;;;27.90;;
57085;SDS011;42964;42.910;23.792;2022-10-13T22:21:44;34.05;;;25.67;;
57085;SDS011;42964;42.910;23.792;2022-10-13T22:26:45;35.97;;;24.85;;
57085;SDS011;42964;42.910;23.792;2022-10-13T22:31:46;31.17;;;23.58;;
57085;SDS011;42964;42.910;23.792;2022-10-13T22:41:44;31.00;;;21.33;;
57085;SDS011;42964;42.910;23.792;2022-10-13T22:46:43;30.48;;;22.23;;
57085;SDS011;42964;42.910;23.792;2022-10-13T22:51:42;26.38;;;21.48;;
57085;SDS011;42964;42.910;23.792;2022-10-13T22:56:41;27.25;;;20.42;;
57085;SDS011;42964;42.910;23.792;2022-10-13T23:06:39;20.85;;;15.57;;
57085;SDS011;42964;42.910;23.792;2022-10-13T23:11:38;21.80;;;16.63;;
57085;SDS011;42964;42.910;23.792;2022-10-13T23:16:38;23.30;;;16.88;;
57085;SDS011;42964;42.910;23.792;2022-10-13T23:21:37;28.65;;;19.90;;
57085;SDS011;42964;42.910;23.792;2022-10-13T23:26:35;28.33;;;17.85;;
57085;SDS011;42964;42.910;23.792;2022-10-13T23:31:34;26.65;;;19.05;;
57085;SDS011;42964;42.910;23.792;2022-10-13T23:36:33;26.25;;;18.42;;
57085;SDS011;42964;42.910;23.792;2022-10-13T23:41:32;28.83;;;21.08;;
57085;SDS011;42964;42.910;23.792;2022-10-13T23:46:32;27.83;;;22.40;;
57085;SDS011;42964;42.910;23.792;2022-10-13T23:51:31;30.27;;;23.00;;
57085;SDS011;42964;42.910;23.792;2022-10-13T23:56:30;30.33;;;23.98;;
